sensor_id;sensor_type;location;lat;lon;timestamp;P1;durP1;ratioP1;P2;durP2;ratioP2
35632;SDS011;21754;48.216;-1.628;2023-08-20T05:20:50;1.75;;;1.00;;
35632;SDS011;21754;48.216;-1.628;2023-08-20T05:23:16;3.40;;;1.10;;
35632;SDS011;21754;48.216;-1.628;2023-08-20T05:25:42;0.93;;;0.93;;
35632;SDS011;21754;48.216;-1.628;2023-08-20T05:28:08;4.68;;;1.60;;
35632;SDS011;21754;48.216;-1.628;2023-08-20T05:30:34;0.90;;;0.90;;
35632;SDS011;21754;48.216;-1.628;2023-08-20T05:33:00;2.08;;;1.33;;
35632;SDS011;21754;48.216;-1.628;2023-08-20T05:35:26;1.58;;;0.85;;
35632;SDS011;21754;48.216;-1.628;2023-08-20T05:37:53;5.88;;;0.93;;
35632;SDS011;21754;48.216;-1.628;2023-08-20T05:40:19;4.93;;;1.00;;
35632;SDS011;21754;48.216;-1.628;2023-08-20T05:42:45;3.90;;;0.85;;
35632;SDS011;21754;48.216;-1.628;2023-08-20T05:45:11;2.25;;;0.88;;
35632;SDS011;21754;48.216;-1.628;2023-08-20T05:47:37;3.25;;;1.17;;
35632;SDS011;21754;48.216;-1.628;2023-08-20T05:50:04;2.47;;;1.25;;
35632;SDS011;21754;48.216;-1.628;2023-08-20T05:52:30;1.92;;;1.00;;
35632;SDS011;21754;48.216;-1.628;2023-08-20T05:54:56;7.70;;;0.98;;
35632;SDS011;21754;48.216;-1.628;2023-08-20T05:57:22;1.38;;;1.27;;
35632;SDS011;21754;48.216;-1.628;2023-08-20T05:59:48;3.10;;;1.10;;
35632;SDS011;21754;48.216;-1.628;2023-08-20T06:02:17;4.35;;;0.95;;
35632;SDS011;21754;48.216;-1.628;2023-08-20T06:04:43;1.33;;;0.98;;
35632;SDS011;21754;48.216;-1.628;2023-08-20T06:07:09;6.97;;;1.02;;
35632;SDS011;21754;48.216;-1.628;2023-08-20T06:09:35;3.90;;;1.17;;
35632;SDS011;21754;48.216;-1.628;2023-08-20T06:12:01;2.80;;;1.20;;
35632;SDS011;21754;48.216;-1.628;2023-08-20T06:14:27;1.83;;;0.90;;
35632;SDS011;21754;48.216;-1.628;2023-08-20T06:16:53;3.20;;;0.98;;
35632;SDS011;21754;48.216;-1.628;2023-08-20T06:19:19;2.65;;;1.08;;
35632;SDS011;21754;48.216;-1.628;2023-08-20T06:21:45;6.18;;;1.10;;
35632;SDS011;21754;48.216;-1.628;2023-08-20T06:24:11;0.90;;;0.90;;
35632;SDS011;21754;48.216;-1.628;2023-08-20T06:26:37;5.38;;;1.50;;
35632;SDS011;21754;48.216;-1.628;2023-08-20T06:29:03;1.23;;;1.08;;
35632;SDS011;21754;48.216;-1.628;2023-08-20T06:31:29;1.40;;;1.30;;
35632;SDS011;21754;48.216;-1.628;2023-08-20T06:33:55;2.00;;;0.93;;
35632;SDS011;21754;48.216;-1.628;2023-08-20T06:36:21;3.25;;;1.38;;
35632;SDS011;21754;48.216;-1.628;2023-08-20T06:38:47;2.95;;;1.25;;
35632;SDS011;21754;48.216;-1.628;2023-08-20T06:41:13;3.95;;;1.60;;
35632;SDS011;21754;48.216;-1.628;2023-08-20T06:43:39;1.48;;;1.20;;
35632;SDS011;21754;48.216;-1.628;2023-08-20T06:46:05;7.18;;;1.38;;
35632;SDS011;21754;48.216;-1.628;2023-08-20T06:48:31;5.78;;;2.17;;
35632;SDS011;21754;48.216;-1.628;2023-08-20T06:50:57;5.53;;;1.88;;
35632;SDS011;21754;48.216;-1.628;2023-08-20T06:53:23;3.70;;;1.48;;
35632;SDS011;21754;48.216;-1.628;2023-08-20T06:55:49;12.77;;;2.35;;
35632;SDS011;21754;48.216;-1.628;2023-08-20T06:58:15;7.20;;;1.73;;
35632;SDS011;21754;48.216;-1.628;2023-08-20T07:00:41;8.23;;;1.65;;
35632;SDS011;21754;48.216;-1.628;2023-08-20T07:03:07;3.25;;;1.20;;
35632;SDS011;21754;48.216;-1.628;2023-08-20T07:05:34;6.13;;;1.65;;
35632;SDS011;21754;48.216;-1.628;2023-08-20T07:08:00;13.80;;;1.50;;
35632;SDS011;21754;48.216;-1.628;2023-08-20T07:10:26;10.77;;;2.22;;
35632;SDS011;21754;48.216;-1.628;2023-08-20T07:12:52;4.70;;;1.55;;
35632;SDS011;21754;48.216;-1.628;2023-08-20T07:15:18;11.93;;;2.10;;
35632;SDS011;21754;48.216;-1.628;2023-08-20T07:17:44;9.43;;;1.70;;
35632;SDS011;21754;48.216;-1.628;2023-08-20T07:20:10;3.95;;;1.48;;
35632;SDS011;21754;48.216;-1.628;2023-08-20T07:22:36;3.97;;;1.80;;
35632;SDS011;21754;48.216;-1.628;2023-08-20T07:25:05;5.30;;;1.42;;
35632;SDS011;21754;48.216;-1.628;2023-08-20T07:27:31;13.65;;;1.73;;
35632;SDS011;21754;48.216;-1.628;2023-08-20T07:29:57;8.35;;;2.00;;
35632;SDS011;21754;48.216;-1.628;2023-08-20T07:32:23;10.45;;;2.40;;
35632;SDS011;21754;48.216;-1.628;2023-08-20T07:34:49;5.03;;;1.63;;
35632;SDS011;21754;48.216;-1.628;2023-08-20T07:37:15;13.90;;;2.40;;
35632;SDS011;21754;48.216;-1.628;2023-08-20T07:39:41;8.35;;;2.72;;
35632;SDS011;21754;48.216;-1.628;2023-08-20T07:42:07;10.85;;;3.13;;
35632;SDS011;21754;48.216;-1.628;2023-08-20T07:44:33;9.40;;;2.17;;
35632;SDS011;21754;48.216;-1.628;2023-08-20T07:46:59;13.98;;;3.33;;
35632;SDS011;21754;48.216;-1.628;2023-08-20T07:49:25;8.82;;;1.88;;
35632;SDS011;21754;48.216;-1.628;2023-08-20T07:51:51;6.22;;;2.20;;
35632;SDS011;21754;48.216;-1.628;2023-08-20T07:54:19;5.78;;;1.45;;
35632;SDS011;21754;48.216;-1.628;2023-08-20T07:56:45;7.55;;;2.13;;
35632;SDS011;21754;48.216;-1.628;2023-08-20T07:59:11;5.60;;;2.25;;
35632;SDS011;21754;48.216;-1.628;2023-08-20T08:01:37;6.15;;;1.83;;
35632;SDS011;21754;48.216;-1.628;2023-08-20T08:04:03;5.65;;;1.48;;
35632;SDS011;21754;48.216;-1.628;2023-08-20T08:06:29;3.75;;;1.35;;
35632;SDS011;21754;48.216;-1.628;2023-08-20T08:08:55;10.18;;;2.67;;
35632;SDS011;21754;48.216;-1.628;2023-08-20T08:11:21;14.52;;;3.25;;
35632;SDS011;21754;48.216;-1.628;2023-08-20T08:13:47;8.95;;;1.55;;
35632;SDS011;21754;48.216;-1.628;2023-08-20T08:16:13;9.05;;;1.77;;
35632;SDS011;21754;48.216;-1.628;2023-08-20T08:18:39;7.75;;;1.90;;
35632;SDS011;21754;48.216;-1.628;2023-08-20T08:21:05;5.32;;;1.25;;
35632;SDS011;21754;48.216;-1.628;2023-08-20T08:23:31;6.45;;;1.63;;
35632;SDS011;21754;48.216;-1.628;2023-08-20T08:25:57;7.22;;;2.08;;
35632;SDS011;21754;48.216;-1.628;2023-08-20T08:28:23;10.88;;;2.22;;
35632;SDS011;21754;48.216;-1.628;2023-08-20T08:30:49;12.98;;;2.38;;
35632;SDS011;21754;48.216;-1.628;2023-08-20T08:33:15;10.77;;;2.97;;
35632;SDS011;21754;48.216;-1.628;2023-08-20T08:35:41;11.13;;;1.65;;
35632;SDS011;21754;48.216;-1.628;2023-08-20T08:38:07;8.40;;;1.95;;
35632;SDS011;21754;48.216;-1.628;2023-08-20T08:40:33;9.25;;;1.88;;
35632;SDS011;21754;48.216;-1.628;2023-08-20T08:42:59;5.05;;;1.48;;
35632;SDS011;21754;48.216;-1.628;2023-08-20T08:45:26;7.25;;;1.20;;
35632;SDS011;21754;48.216;-1.628;2023-08-20T08:47:52;9.98;;;1.95;;
35632;SDS011;21754;48.216;-1.628;2023-08-20T08:50:20;3.22;;;0.93;;
35632;SDS011;21754;48.216;-1.628;2023-08-20T08:52:46;10.30;;;1.98;;
35632;SDS011;21754;48.216;-1.628;2023-08-20T08:55:13;9.00;;;2.35;;
35632;SDS011;21754;48.216;-1.628;2023-08-20T08:57:39;4.20;;;1.45;;
35632;SDS011;21754;48.216;-1.628;2023-08-20T09:00:05;9.23;;;1.48;;
35632;SDS011;21754;48.216;-1.628;2023-08-20T09:02:31;6.22;;;1.45;;
35632;SDS011;21754;48.216;-1.628;2023-08-20T09:04:57;5.65;;;1.25;;
35632;SDS011;21754;48.216;-1.628;2023-08-20T09:07:24;7.45;;;1.55;;
35632;SDS011;21754;48.216;-1.628;2023-08-20T09:09:50;14.55;;;2.25;;
35632;SDS011;21754;48.216;-1.628;2023-08-20T09:12:16;6.50;;;1.63;;
35632;SDS011;21754;48.216;-1.628;2023-08-20T09:14:46;7.97;;;2.20;;
35632;SDS011;21754;48.216;-1.628;2023-08-20T09:17:12;9.77;;;2.70;;
35632;SDS011;21754;48.216;-1.628;2023-08-20T09:19:39;8.80;;;1.30;;
35632;SDS011;21754;48.216;-1.628;2023-08-20T09:22:05;3.60;;;1.33;;
35632;SDS011;21754;48.216;-1.628;2023-08-20T09:24:38;2.85;;;1.92;;
35632;SDS011;21754;48.216;-1.628;2023-08-20T09:27:06;3.25;;;1.75;;
35632;SDS011;21754;48.216;-1.628;2023-08-20T09:29:32;5.90;;;1.80;;
35632;SDS011;21754;48.216;-1.628;2023-08-20T09:32:02;12.67;;;2.60;;
35632;SDS011;21754;48.216;-1.628;2023-08-20T09:34:35;4.30;;;2.25;;
35632;SDS011;21754;48.216;-1.628;2023-08-20T09:37:02;5.72;;;1.45;;
35632;SDS011;21754;48.216;-1.628;2023-08-20T09:39:28;18.98;;;1.75;;
35632;SDS011;21754;48.216;-1.628;2023-08-20T09:41:54;10.20;;;3.05;;
35632;SDS011;21754;48.216;-1.628;2023-08-20T09:44:21;6.22;;;1.45;;
35632;SDS011;21754;48.216;-1.628;2023-08-20T09:46:47;2.63;;;1.10;;
35632;SDS011;21754;48.216;-1.628;2023-08-20T09:49:13;5.00;;;1.15;;
35632;SDS011;21754;48.216;-1.628;2023-08-20T09:51:41;6.78;;;2.42;;
35632;SDS011;21754;48.216;-1.628;2023-08-20T09:54:13;7.22;;;1.10;;
35632;SDS011;21754;48.216;-1.628;2023-08-20T09:56:39;4.75;;;1.50;;
35632;SDS011;21754;48.216;-1.628;2023-08-20T09:59:06;3.65;;;1.00;;
35632;SDS011;21754;48.216;-1.628;2023-08-20T10:01:33;7.60;;;2.28;;
35632;SDS011;21754;48.216;-1.628;2023-08-20T10:04:00;10.00;;;1.63;;
35632;SDS011;21754;48.216;-1.628;2023-08-20T10:06:26;4.68;;;1.02;;
35632;SDS011;21754;48.216;-1.628;2023-08-20T10:08:53;4.27;;;1.47;;
35632;SDS011;21754;48.216;-1.628;2023-08-20T10:11:19;5.93;;;1.10;;
35632;SDS011;21754;48.216;-1.628;2023-08-20T10:13:45;4.05;;;0.77;;
35632;SDS011;21754;48.216;-1.628;2023-08-20T10:16:12;4.25;;;0.90;;
35632;SDS011;21754;48.216;-1.628;2023-08-20T10:18:38;4.57;;;1.73;;
35632;SDS011;21754;48.216;-1.628;2023-08-20T10:21:04;8.77;;;1.73;;
35632;SDS011;21754;48.216;-1.628;2023-08-20T10:23:34;6.95;;;1.33;;
35632;SDS011;21754;48.216;-1.628;2023-08-20T10:26:08;10.13;;;2.00;;
35632;SDS011;21754;48.216;-1.628;2023-08-20T10:28:35;3.42;;;1.08;;
35632;SDS011;21754;48.216;-1.628;2023-08-20T10:31:19;8.10;;;2.05;;
35632;SDS011;21754;48.216;-1.628;2023-08-20T10:33:50;3.80;;;1.20;;
35632;SDS011;21754;48.216;-1.628;2023-08-20T10:36:20;3.97;;;0.85;;
35632;SDS011;21754;48.216;-1.628;2023-08-20T10:38:48;3.42;;;0.80;;
35632;SDS011;21754;48.216;-1.628;2023-08-20T10:41:14;2.00;;;1.48;;
35632;SDS011;21754;48.216;-1.628;2023-08-20T10:43:47;7.07;;;1.67;;
35632;SDS011;21754;48.216;-1.628;2023-08-20T10:48:54;3.75;;;1.13;;
35632;SDS011;21754;48.216;-1.628;2023-08-20T10:54:14;2.80;;;0.93;;
35632;SDS011;21754;48.216;-1.628;2023-08-20T10:59:16;2.88;;;0.88;;
35632;SDS011;21754;48.216;-1.628;2023-08-20T11:01:45;1.40;;;1.10;;
35632;SDS011;21754;48.216;-1.628;2023-08-20T11:04:12;2.97;;;0.85;;
35632;SDS011;21754;48.216;-1.628;2023-08-20T11:06:38;2.35;;;1.38;;
35632;SDS011;21754;48.216;-1.628;2023-08-20T11:09:05;8.50;;;1.10;;
35632;SDS011;21754;48.216;-1.628;2023-08-20T11:11:31;6.68;;;0.98;;
35632;SDS011;21754;48.216;-1.628;2023-08-20T11:14:04;2.85;;;0.95;;
35632;SDS011;21754;48.216;-1.628;2023-08-20T11:16:31;4.55;;;1.02;;
35632;SDS011;21754;48.216;-1.628;2023-08-20T11:18:57;6.25;;;2.53;;
35632;SDS011;21754;48.216;-1.628;2023-08-20T11:21:23;2.58;;;1.00;;
35632;SDS011;21754;48.216;-1.628;2023-08-20T11:23:49;2.22;;;0.80;;
35632;SDS011;21754;48.216;-1.628;2023-08-20T11:26:17;2.63;;;0.93;;
35632;SDS011;21754;48.216;-1.628;2023-08-20T11:28:46;5.20;;;1.58;;
35632;SDS011;21754;48.216;-1.628;2023-08-20T11:31:12;6.13;;;0.75;;
35632;SDS011;21754;48.216;-1.628;2023-08-20T11:33:38;2.47;;;0.93;;
35632;SDS011;21754;48.216;-1.628;2023-08-20T11:36:07;4.35;;;1.58;;
35632;SDS011;21754;48.216;-1.628;2023-08-20T11:38:33;2.75;;;1.00;;
35632;SDS011;21754;48.216;-1.628;2023-08-20T11:40:59;3.05;;;1.15;;
35632;SDS011;21754;48.216;-1.628;2023-08-20T11:43:29;1.15;;;0.80;;
35632;SDS011;21754;48.216;-1.628;2023-08-20T11:45:55;11.25;;;1.17;;
35632;SDS011;21754;48.216;-1.628;2023-08-20T11:48:21;16.38;;;2.63;;
35632;SDS011;21754;48.216;-1.628;2023-08-20T11:50:49;2.15;;;0.73;;
35632;SDS011;21754;48.216;-1.628;2023-08-20T11:55:41;2.30;;;0.80;;
35632;SDS011;21754;48.216;-1.628;2023-08-20T11:58:13;4.28;;;1.30;;
35632;SDS011;21754;48.216;-1.628;2023-08-20T12:00:40;2.50;;;1.00;;
35632;SDS011;21754;48.216;-1.628;2023-08-20T12:03:07;4.35;;;0.70;;
35632;SDS011;21754;48.216;-1.628;2023-08-20T12:05:33;1.70;;;1.60;;
35632;SDS011;21754;48.216;-1.628;2023-08-20T12:08:00;1.20;;;1.10;;
35632;SDS011;21754;48.216;-1.628;2023-08-20T12:10:27;5.53;;;0.77;;
35632;SDS011;21754;48.216;-1.628;2023-08-20T12:12:53;3.50;;;1.10;;
35632;SDS011;21754;48.216;-1.628;2023-08-20T12:15:20;1.67;;;0.80;;
35632;SDS011;21754;48.216;-1.628;2023-08-20T12:17:56;1.48;;;0.73;;
35632;SDS011;21754;48.216;-1.628;2023-08-20T12:20:22;2.13;;;1.17;;
35632;SDS011;21754;48.216;-1.628;2023-08-20T12:22:48;2.78;;;1.05;;
35632;SDS011;21754;48.216;-1.628;2023-08-20T12:25:15;1.85;;;0.95;;
35632;SDS011;21754;48.216;-1.628;2023-08-20T12:27:41;6.70;;;0.70;;
35632;SDS011;21754;48.216;-1.628;2023-08-20T12:30:07;2.15;;;1.27;;
35632;SDS011;21754;48.216;-1.628;2023-08-20T12:32:33;4.57;;;0.88;;
35632;SDS011;21754;48.216;-1.628;2023-08-20T12:34:59;5.93;;;0.90;;
35632;SDS011;21754;48.216;-1.628;2023-08-20T12:37:27;1.98;;;1.08;;
35632;SDS011;21754;48.216;-1.628;2023-08-20T12:39:53;2.03;;;0.70;;
35632;SDS011;21754;48.216;-1.628;2023-08-20T12:42:19;3.78;;;0.70;;
35632;SDS011;21754;48.216;-1.628;2023-08-20T12:44:45;4.63;;;0.60;;
35632;SDS011;21754;48.216;-1.628;2023-08-20T12:47:11;2.78;;;2.10;;
35632;SDS011;21754;48.216;-1.628;2023-08-20T12:49:37;1.25;;;0.80;;
35632;SDS011;21754;48.216;-1.628;2023-08-20T12:52:03;1.45;;;0.65;;
35632;SDS011;21754;48.216;-1.628;2023-08-20T12:54:29;4.50;;;1.10;;
35632;SDS011;21754;48.216;-1.628;2023-08-20T12:56:55;1.30;;;0.80;;
35632;SDS011;21754;48.216;-1.628;2023-08-20T12:59:21;1.08;;;0.90;;
35632;SDS011;21754;48.216;-1.628;2023-08-20T13:01:47;2.03;;;1.00;;
35632;SDS011;21754;48.216;-1.628;2023-08-20T13:04:14;3.30;;;0.85;;
35632;SDS011;21754;48.216;-1.628;2023-08-20T13:06:40;1.23;;;0.60;;
35632;SDS011;21754;48.216;-1.628;2023-08-20T13:09:06;1.95;;;1.35;;
35632;SDS011;21754;48.216;-1.628;2023-08-20T13:14:00;2.65;;;0.70;;
35632;SDS011;21754;48.216;-1.628;2023-08-20T13:16:26;2.13;;;0.60;;
35632;SDS011;21754;48.216;-1.628;2023-08-20T13:18:52;7.70;;;0.80;;
35632;SDS011;21754;48.216;-1.628;2023-08-20T13:21:18;0.95;;;0.73;;
35632;SDS011;21754;48.216;-1.628;2023-08-20T13:23:46;4.20;;;1.20;;
35632;SDS011;21754;48.216;-1.628;2023-08-20T13:26:12;0.63;;;0.60;;
35632;SDS011;21754;48.216;-1.628;2023-08-20T13:28:38;1.85;;;0.50;;
35632;SDS011;21754;48.216;-1.628;2023-08-20T13:31:04;2.17;;;1.15;;
35632;SDS011;21754;48.216;-1.628;2023-08-20T13:33:30;2.38;;;1.40;;
35632;SDS011;21754;48.216;-1.628;2023-08-20T13:35:56;1.05;;;0.95;;
35632;SDS011;21754;48.216;-1.628;2023-08-20T13:38:23;3.58;;;0.65;;
35632;SDS011;21754;48.216;-1.628;2023-08-20T13:40:50;3.00;;;1.52;;
35632;SDS011;21754;48.216;-1.628;2023-08-20T13:43:16;1.67;;;0.70;;
35632;SDS011;21754;48.216;-1.628;2023-08-20T13:45:42;4.22;;;1.20;;
35632;SDS011;21754;48.216;-1.628;2023-08-20T13:48:08;1.55;;;0.70;;
35632;SDS011;21754;48.216;-1.628;2023-08-20T13:50:34;1.38;;;0.57;;
35632;SDS011;21754;48.216;-1.628;2023-08-20T13:53:00;2.85;;;0.70;;
35632;SDS011;21754;48.216;-1.628;2023-08-20T13:55:26;2.03;;;0.50;;
35632;SDS011;21754;48.216;-1.628;2023-08-20T13:57:53;1.13;;;0.50;;
35632;SDS011;21754;48.216;-1.628;2023-08-20T14:00:19;0.60;;;0.60;;
35632;SDS011;21754;48.216;-1.628;2023-08-20T14:02:45;0.50;;;0.50;;
35632;SDS011;21754;48.216;-1.628;2023-08-20T14:05:11;0.35;;;0.35;;
35632;SDS011;21754;48.216;-1.628;2023-08-20T14:07:38;2.17;;;0.90;;
35632;SDS011;21754;48.216;-1.628;2023-08-20T14:10:04;0.95;;;0.60;;
35632;SDS011;21754;48.216;-1.628;2023-08-20T14:12:30;2.10;;;1.20;;
35632;SDS011;21754;48.216;-1.628;2023-08-20T14:14:56;1.48;;;0.77;;
35632;SDS011;21754;48.216;-1.628;2023-08-20T14:17:22;3.03;;;0.80;;
35632;SDS011;21754;48.216;-1.628;2023-08-20T14:19:48;4.78;;;0.73;;
35632;SDS011;21754;48.216;-1.628;2023-08-20T14:22:14;0.50;;;0.50;;
35632;SDS011;21754;48.216;-1.628;2023-08-20T14:24:40;1.33;;;0.80;;
35632;SDS011;21754;48.216;-1.628;2023-08-20T14:27:06;2.47;;;0.85;;
35632;SDS011;21754;48.216;-1.628;2023-08-20T14:29:32;0.52;;;0.50;;
35632;SDS011;21754;48.216;-1.628;2023-08-20T14:31:59;3.60;;;0.93;;
35632;SDS011;21754;48.216;-1.628;2023-08-20T14:34:25;2.38;;;0.82;;
35632;SDS011;21754;48.216;-1.628;2023-08-20T14:36:54;0.43;;;0.43;;
35632;SDS011;21754;48.216;-1.628;2023-08-20T14:39:20;0.52;;;0.52;;
35632;SDS011;21754;48.216;-1.628;2023-08-20T14:41:46;0.67;;;0.60;;
35632;SDS011;21754;48.216;-1.628;2023-08-20T14:44:15;0.50;;;0.50;;
35632;SDS011;21754;48.216;-1.628;2023-08-20T14:46:41;0.77;;;0.65;;
35632;SDS011;21754;48.216;-1.628;2023-08-20T14:49:07;1.42;;;0.68;;
35632;SDS011;21754;48.216;-1.628;2023-08-20T14:51:33;1.85;;;0.60;;
35632;SDS011;21754;48.216;-1.628;2023-08-20T14:54:00;2.08;;;0.50;;
35632;SDS011;21754;48.216;-1.628;2023-08-20T14:56:26;1.70;;;0.40;;
35632;SDS011;21754;48.216;-1.628;2023-08-20T14:58:52;1.33;;;0.70;;
35632;SDS011;21754;48.216;-1.628;2023-08-20T15:01:18;2.15;;;0.73;;
35632;SDS011;21754;48.216;-1.628;2023-08-20T15:03:44;2.70;;;0.40;;
35632;SDS011;21754;48.216;-1.628;2023-08-20T15:06:11;0.50;;;0.50;;
35632;SDS011;21754;48.216;-1.628;2023-08-20T15:08:37;1.10;;;0.98;;
35632;SDS011;21754;48.216;-1.628;2023-08-20T15:11:03;3.70;;;0.80;;
35632;SDS011;21754;48.216;-1.628;2023-08-20T15:13:30;0.75;;;0.50;;
35632;SDS011;21754;48.216;-1.628;2023-08-20T15:15:56;0.93;;;0.40;;
35632;SDS011;21754;48.216;-1.628;2023-08-20T15:18:23;1.20;;;0.55;;
35632;SDS011;21754;48.216;-1.628;2023-08-20T15:20:56;2.53;;;0.68;;
35632;SDS011;21754;48.216;-1.628;2023-08-20T15:23:28;0.68;;;0.60;;
35632;SDS011;21754;48.216;-1.628;2023-08-20T15:25:58;2.05;;;0.55;;
35632;SDS011;21754;48.216;-1.628;2023-08-20T15:28:45;1.52;;;0.70;;
35632;SDS011;21754;48.216;-1.628;2023-08-20T15:31:11;1.90;;;0.70;;
35632;SDS011;21754;48.216;-1.628;2023-08-20T15:33:37;1.42;;;1.00;;
35632;SDS011;21754;48.216;-1.628;2023-08-20T15:36:03;2.60;;;0.93;;
35632;SDS011;21754;48.216;-1.628;2023-08-20T15:38:48;0.47;;;0.43;;
35632;SDS011;21754;48.216;-1.628;2023-08-20T15:41:14;1.48;;;0.60;;
35632;SDS011;21754;48.216;-1.628;2023-08-20T15:43:43;1.05;;;0.68;;
35632;SDS011;21754;48.216;-1.628;2023-08-20T15:46:09;0.77;;;0.77;;
35632;SDS011;21754;48.216;-1.628;2023-08-20T15:48:37;0.45;;;0.45;;
35632;SDS011;21754;48.216;-1.628;2023-08-20T15:51:03;2.65;;;1.27;;
35632;SDS011;21754;48.216;-1.628;2023-08-20T15:53:29;2.13;;;0.93;;
35632;SDS011;21754;48.216;-1.628;2023-08-20T15:55:55;0.60;;;0.60;;
35632;SDS011;21754;48.216;-1.628;2023-08-20T15:58:39;1.00;;;0.50;;
35632;SDS011;21754;48.216;-1.628;2023-08-20T16:01:11;2.33;;;1.13;;
35632;SDS011;21754;48.216;-1.628;2023-08-20T16:03:40;3.90;;;0.75;;
35632;SDS011;21754;48.216;-1.628;2023-08-20T16:06:09;0.52;;;0.52;;
35632;SDS011;21754;48.216;-1.628;2023-08-20T16:08:37;3.63;;;1.00;;
35632;SDS011;21754;48.216;-1.628;2023-08-20T16:11:05;1.67;;;0.65;;
35632;SDS011;21754;48.216;-1.628;2023-08-20T16:13:31;1.30;;;0.65;;
35632;SDS011;21754;48.216;-1.628;2023-08-20T16:15:58;0.50;;;0.50;;
35632;SDS011;21754;48.216;-1.628;2023-08-20T16:18:53;0.38;;;0.38;;
35632;SDS011;21754;48.216;-1.628;2023-08-20T16:21:22;1.50;;;0.68;;
35632;SDS011;21754;48.216;-1.628;2023-08-20T16:23:48;0.50;;;0.50;;
35632;SDS011;21754;48.216;-1.628;2023-08-20T16:26:14;0.50;;;0.50;;
35632;SDS011;21754;48.216;-1.628;2023-08-20T16:28:41;1.65;;;0.70;;
35632;SDS011;21754;48.216;-1.628;2023-08-20T16:31:08;2.22;;;0.68;;
35632;SDS011;21754;48.216;-1.628;2023-08-20T16:33:34;0.67;;;0.53;;
35632;SDS011;21754;48.216;-1.628;2023-08-20T16:36:00;1.33;;;0.68;;
35632;SDS011;21754;48.216;-1.628;2023-08-20T16:38:27;0.40;;;0.40;;
35632;SDS011;21754;48.216;-1.628;2023-08-20T16:40:53;2.95;;;0.65;;
35632;SDS011;21754;48.216;-1.628;2023-08-20T16:43:19;2.28;;;1.13;;
35632;SDS011;21754;48.216;-1.628;2023-08-20T16:45:45;1.90;;;1.10;;
35632;SDS011;21754;48.216;-1.628;2023-08-20T16:48:11;0.43;;;0.43;;
35632;SDS011;21754;48.216;-1.628;2023-08-20T16:50:37;1.65;;;0.98;;
35632;SDS011;21754;48.216;-1.628;2023-08-20T16:53:03;0.50;;;0.50;;
35632;SDS011;21754;48.216;-1.628;2023-08-20T16:55:29;1.30;;;0.60;;
35632;SDS011;21754;48.216;-1.628;2023-08-20T16:57:57;0.77;;;0.63;;
35632;SDS011;21754;48.216;-1.628;2023-08-20T17:00:24;0.40;;;0.40;;
35632;SDS011;21754;48.216;-1.628;2023-08-20T17:02:50;1.55;;;0.70;;
35632;SDS011;21754;48.216;-1.628;2023-08-20T17:05:17;0.37;;;0.37;;
35632;SDS011;21754;48.216;-1.628;2023-08-20T17:07:43;0.57;;;0.47;;
35632;SDS011;21754;48.216;-1.628;2023-08-20T17:10:09;3.13;;;0.63;;
35632;SDS011;21754;48.216;-1.628;2023-08-20T17:12:36;1.35;;;0.75;;
35632;SDS011;21754;48.216;-1.628;2023-08-20T17:15:02;3.55;;;0.75;;
35632;SDS011;21754;48.216;-1.628;2023-08-20T17:17:28;0.73;;;0.57;;
35632;SDS011;21754;48.216;-1.628;2023-08-20T17:19:54;6.80;;;1.27;;
35632;SDS011;21754;48.216;-1.628;2023-08-20T17:22:20;3.15;;;1.00;;
35632;SDS011;21754;48.216;-1.628;2023-08-20T17:24:46;2.25;;;0.88;;
35632;SDS011;21754;48.216;-1.628;2023-08-20T17:27:14;2.92;;;1.10;;
35632;SDS011;21754;48.216;-1.628;2023-08-20T17:32:07;2.83;;;1.08;;
35632;SDS011;21754;48.216;-1.628;2023-08-20T17:34:33;5.88;;;1.48;;
35632;SDS011;21754;48.216;-1.628;2023-08-20T17:36:59;2.17;;;1.05;;
35632;SDS011;21754;48.216;-1.628;2023-08-20T17:39:26;2.38;;;1.48;;
35632;SDS011;21754;48.216;-1.628;2023-08-20T17:41:53;3.88;;;1.33;;
35632;SDS011;21754;48.216;-1.628;2023-08-20T17:44:19;4.70;;;0.80;;
35632;SDS011;21754;48.216;-1.628;2023-08-20T17:46:45;2.80;;;1.15;;
35632;SDS011;21754;48.216;-1.628;2023-08-20T17:49:12;2.47;;;1.17;;
35632;SDS011;21754;48.216;-1.628;2023-08-20T17:51:38;3.28;;;0.70;;
35632;SDS011;21754;48.216;-1.628;2023-08-20T17:54:05;1.52;;;0.73;;
35632;SDS011;21754;48.216;-1.628;2023-08-20T17:56:31;3.28;;;0.93;;
35632;SDS011;21754;48.216;-1.628;2023-08-20T17:58:57;6.15;;;1.13;;
35632;SDS011;21754;48.216;-1.628;2023-08-20T18:01:23;2.80;;;0.80;;
35632;SDS011;21754;48.216;-1.628;2023-08-20T18:03:49;3.28;;;0.80;;
35632;SDS011;21754;48.216;-1.628;2023-08-20T18:06:16;0.70;;;0.50;;
35632;SDS011;21754;48.216;-1.628;2023-08-20T18:08:43;1.52;;;0.90;;
35632;SDS011;21754;48.216;-1.628;2023-08-20T18:11:09;4.70;;;1.20;;
35632;SDS011;21754;48.216;-1.628;2023-08-20T18:13:35;4.22;;;0.98;;
35632;SDS011;21754;48.216;-1.628;2023-08-20T18:16:01;1.77;;;0.55;;
35632;SDS011;21754;48.216;-1.628;2023-08-20T18:18:28;1.83;;;1.65;;
35632;SDS011;21754;48.216;-1.628;2023-08-20T18:20:55;1.50;;;1.13;;
35632;SDS011;21754;48.216;-1.628;2023-08-20T18:23:21;2.47;;;0.90;;
35632;SDS011;21754;48.216;-1.628;2023-08-20T18:25:47;1.95;;;0.90;;
35632;SDS011;21754;48.216;-1.628;2023-08-20T18:28:14;1.83;;;1.05;;
35632;SDS011;21754;48.216;-1.628;2023-08-20T18:30:40;3.42;;;1.00;;
35632;SDS011;21754;48.216;-1.628;2023-08-20T18:33:06;4.05;;;0.90;;
35632;SDS011;21754;48.216;-1.628;2023-08-20T18:35:32;5.55;;;0.93;;
35632;SDS011;21754;48.216;-1.628;2023-08-20T18:37:58;1.27;;;0.70;;
35632;SDS011;21754;48.216;-1.628;2023-08-20T18:40:24;0.98;;;0.73;;
35632;SDS011;21754;48.216;-1.628;2023-08-20T18:42:50;0.98;;;0.60;;
35632;SDS011;21754;48.216;-1.628;2023-08-20T18:45:16;3.25;;;1.10;;
35632;SDS011;21754;48.216;-1.628;2023-08-20T18:47:42;0.55;;;0.55;;
35632;SDS011;21754;48.216;-1.628;2023-08-20T18:50:08;1.58;;;0.80;;
35632;SDS011;21754;48.216;-1.628;2023-08-20T18:52:35;3.25;;;1.15;;
35632;SDS011;21754;48.216;-1.628;2023-08-20T18:55:01;2.03;;;1.38;;
35632;SDS011;21754;48.216;-1.628;2023-08-20T18:57:30;1.20;;;0.90;;
35632;SDS011;21754;48.216;-1.628;2023-08-20T18:59:56;1.55;;;0.63;;
35632;SDS011;21754;48.216;-1.628;2023-08-20T19:02:24;1.42;;;0.98;;
35632;SDS011;21754;48.216;-1.628;2023-08-20T19:04:50;2.80;;;0.65;;
35632;SDS011;21754;48.216;-1.628;2023-08-20T19:07:17;1.33;;;0.83;;
35632;SDS011;21754;48.216;-1.628;2023-08-20T19:09:43;0.65;;;0.63;;
35632;SDS011;21754;48.216;-1.628;2023-08-20T19:12:09;3.30;;;0.75;;
35632;SDS011;21754;48.216;-1.628;2023-08-20T19:14:35;1.67;;;0.85;;
35632;SDS011;21754;48.216;-1.628;2023-08-20T19:17:01;3.55;;;1.40;;
35632;SDS011;21754;48.216;-1.628;2023-08-20T19:19:27;4.57;;;1.63;;
35632;SDS011;21754;48.216;-1.628;2023-08-20T19:21:53;2.55;;;0.75;;
35632;SDS011;21754;48.216;-1.628;2023-08-20T19:24:19;4.05;;;1.13;;
35632;SDS011;21754;48.216;-1.628;2023-08-20T19:26:45;0.90;;;0.80;;
35632;SDS011;21754;48.216;-1.628;2023-08-20T19:29:11;1.75;;;0.63;;
35632;SDS011;21754;48.216;-1.628;2023-08-20T19:31:37;2.80;;;1.20;;
35632;SDS011;21754;48.216;-1.628;2023-08-20T19:34:03;1.17;;;0.77;;
35632;SDS011;21754;48.216;-1.628;2023-08-20T19:36:29;0.85;;;0.80;;
35632;SDS011;21754;48.216;-1.628;2023-08-20T19:38:55;1.08;;;0.73;;
35632;SDS011;21754;48.216;-1.628;2023-08-20T19:41:21;2.08;;;1.10;;
35632;SDS011;21754;48.216;-1.628;2023-08-20T19:43:47;2.63;;;0.80;;
35632;SDS011;21754;48.216;-1.628;2023-08-20T19:46:13;1.27;;;1.05;;
35632;SDS011;21754;48.216;-1.628;2023-08-20T19:48:39;3.03;;;1.40;;
35632;SDS011;21754;48.216;-1.628;2023-08-20T19:51:05;2.33;;;1.15;;
35632;SDS011;21754;48.216;-1.628;2023-08-20T19:53:31;4.88;;;0.88;;
35632;SDS011;21754;48.216;-1.628;2023-08-20T19:55:57;2.58;;;0.70;;
35632;SDS011;21754;48.216;-1.628;2023-08-20T19:58:24;5.05;;;1.90;;
35632;SDS011;21754;48.216;-1.628;2023-08-20T20:00:50;1.42;;;0.70;;
35632;SDS011;21754;48.216;-1.628;2023-08-20T20:03:16;2.30;;;0.85;;
35632;SDS011;21754;48.216;-1.628;2023-08-20T20:05:42;5.30;;;0.98;;